Weather at Mount Isa Airport

Public forecast

Using degrees Celsius for public forecast. Weather courtesy of forecast.io.

Current aviation weather report (METAR) for Mount Isa Airport

2024/07/13 15:30 (retrieved 23 minutes ago)

YBMA 131530Z AUTO 17009KT 9999 // NCD 13/05 Q1017 RF000/0000

Aviation forecast (TAF) for Mount Isa Airport

2024/07/13 12:00 (retrieved 4 hours ago)

TAF YBMA 131059Z 1312/1400 16008KT CAVOK